createdAt,value
2018-06-02T00:00:53.584Z,37.10
2018-06-02T00:03:22.815Z,30.63
2018-06-02T00:05:51.893Z,36.67
2018-06-02T00:08:21.784Z,36.27
2018-06-02T00:10:51.704Z,35.43
2018-06-02T00:13:20.812Z,34.70
2018-06-02T00:15:50.672Z,36.33
2018-06-02T00:18:19.752Z,37.00
2018-06-02T00:20:48.945Z,39.10
2018-06-02T00:23:22.896Z,32.40
2018-06-02T00:25:51.980Z,41.77
2018-06-02T00:28:21.087Z,39.00
2018-06-02T00:30:50.199Z,36.30
2018-06-02T00:33:19.274Z,36.37
2018-06-02T00:35:49.143Z,34.23
2018-06-02T00:38:18.311Z,37.70
2018-06-02T00:40:47.383Z,33.93
2018-06-02T00:43:16.475Z,36.17
2018-06-02T00:45:45.580Z,37.00
2018-06-02T00:48:14.655Z,36.23
2018-06-02T00:50:44.587Z,38.90
2018-06-02T00:53:14.430Z,36.57
2018-06-02T00:55:44.272Z,33.73
2018-06-02T00:58:13.360Z,31.43
2018-06-02T01:00:43.260Z,36.07
2018-06-02T01:03:12.343Z,35.10
2018-06-02T01:05:41.463Z,36.10
2018-06-02T01:08:10.576Z,44.00
2018-06-02T01:10:39.731Z,37.20
2018-06-02T01:13:08.816Z,35.93
2018-06-02T01:15:37.891Z,43.47
2018-06-02T01:18:06.963Z,35.97
2018-06-02T01:20:36.860Z,39.23
2018-06-02T01:23:05.969Z,41.20
2018-06-02T01:25:35.151Z,38.67
2018-06-02T01:28:04.277Z,36.03
2018-06-02T01:30:33.389Z,39.93
2018-06-02T01:33:02.554Z,42.63
2018-06-02T01:35:31.631Z,37.87
2018-06-02T01:38:00.766Z,43.77
2018-06-02T01:40:30.634Z,40.37
2018-06-02T01:42:59.834Z,35.13
2018-06-02T01:45:28.924Z,41.57
2018-06-02T01:47:58.796Z,39.60
2018-06-02T01:50:27.933Z,39.67
2018-06-02T01:52:57.096Z,35.23
2018-06-02T01:55:26.241Z,40.23
2018-06-02T01:57:55.353Z,39.93
2018-06-02T02:00:24.468Z,42.50
2018-06-02T02:02:53.556Z,41.20
2018-06-02T02:05:22.720Z,39.30
2018-06-02T02:07:52.625Z,40.47
2018-06-02T02:10:21.843Z,37.20
2018-06-02T02:12:50.939Z,37.10
2018-06-02T02:15:20.113Z,34.00
2018-06-02T02:17:49.300Z,36.80
2018-06-02T02:20:18.383Z,44.00
2018-06-02T02:22:47.497Z,39.80
2018-06-02T02:25:16.604Z,40.83
2018-06-02T02:27:45.780Z,40.80
2018-06-02T02:30:14.915Z,41.90
2018-06-02T02:32:44.012Z,41.83
2018-06-02T02:35:13.168Z,39.93
2018-06-02T02:37:43.060Z,41.53
2018-06-02T02:40:12.943Z,46.20
2018-06-02T02:42:42.041Z,39.40
2018-06-02T02:45:11.908Z,41.23
2018-06-02T02:47:41.065Z,42.53
2018-06-02T02:50:10.217Z,44.73
2018-06-02T02:52:39.397Z,40.90
2018-06-02T02:55:09.252Z,45.80
2018-06-02T02:57:38.358Z,39.70
2018-06-02T03:00:07.501Z,41.53
2018-06-02T03:02:36.603Z,39.83
2018-06-02T03:05:05.740Z,44.23
2018-06-02T03:07:34.832Z,41.10
2018-06-02T03:10:03.924Z,40.30
2018-06-02T03:12:33.060Z,40.60
2018-06-02T03:15:02.171Z,39.83
2018-06-02T03:17:31.292Z,36.50
2018-06-02T03:20:00.491Z,37.50
2018-06-02T03:22:29.580Z,40.37
2018-06-02T03:24:58.706Z,35.70
2018-06-02T03:27:27.878Z,34.60
2018-06-02T03:29:57.692Z,40.07
2018-06-02T03:32:26.800Z,35.10
2018-06-02T03:34:56.689Z,41.50
2018-06-02T03:37:25.794Z,37.80
2018-06-02T03:39:54.904Z,43.50
2018-06-02T03:42:23.991Z,35.70
2018-06-02T03:44:53.121Z,38.67
2018-06-02T03:47:22.288Z,41.70
2018-06-02T03:49:52.168Z,40.20
2018-06-02T03:52:21.275Z,44.70
2018-06-02T03:54:50.360Z,39.37
2018-06-02T03:57:20.335Z,42.63
2018-06-02T03:59:49.468Z,41.93
2018-06-02T04:02:18.568Z,37.73
2018-06-02T04:04:47.673Z,41.13
2018-06-02T04:07:16.772Z,40.07
2018-06-02T04:09:45.879Z,40.27
2018-06-02T04:12:15.017Z,41.93
2018-06-02T04:14:44.139Z,40.53
2018-06-02T04:17:13.217Z,40.93
2018-06-02T04:19:42.295Z,44.33
2018-06-02T04:22:11.439Z,42.37
2018-06-02T04:24:40.543Z,42.00
2018-06-02T04:27:09.657Z,38.07
2018-06-02T04:29:38.791Z,43.00
2018-06-02T04:32:07.936Z,41.30
2018-06-02T04:34:37.809Z,39.20
2018-06-02T04:37:07.652Z,40.70
2018-06-02T04:39:36.798Z,36.00
2018-06-02T04:42:06.669Z,37.87
2018-06-02T04:44:35.795Z,40.57
2018-06-02T04:47:04.882Z,31.67
2018-06-02T04:49:34.049Z,37.17
2018-06-02T04:52:04.046Z,36.20
2018-06-02T04:54:33.137Z,36.03
2018-06-02T04:57:02.219Z,34.13
2018-06-02T04:59:32.129Z,36.67
2018-06-02T05:02:01.215Z,36.70
2018-06-02T05:04:30.384Z,39.47
2018-06-02T05:06:59.476Z,35.57
2018-06-02T05:09:29.444Z,38.80
2018-06-02T05:11:58.542Z,39.53
2018-06-02T05:14:27.624Z,33.97
2018-06-02T05:16:57.519Z,38.27
2018-06-02T05:19:26.656Z,35.33
2018-06-02T05:21:55.736Z,32.80
2018-06-02T05:24:24.858Z,36.38
2018-06-02T05:26:53.981Z,34.33
2018-06-02T05:29:23.075Z,32.73
2018-06-02T05:31:52.190Z,32.63
2018-06-02T05:34:21.834Z,33.40
2018-06-02T05:36:51.694Z,33.47
2018-06-02T05:39:20.854Z,38.20
2018-06-02T05:41:50.051Z,35.90
2018-06-02T05:44:19.168Z,32.10
2018-06-02T05:46:48.344Z,34.30
2018-06-02T05:49:18.197Z,35.13
2018-06-02T05:51:47.295Z,36.83
2018-06-02T05:54:16.443Z,32.40
2018-06-02T05:56:45.548Z,34.40
2018-06-02T05:59:14.631Z,33.00
2018-06-02T06:01:43.736Z,27.10
2018-06-02T06:04:12.822Z,27.47
2018-06-02T06:06:42.194Z,32.10
2018-06-02T06:09:11.574Z,29.45
2018-06-02T06:11:40.676Z,25.53
2018-06-02T06:14:09.782Z,23.83
2018-06-02T06:16:39.229Z,24.03
2018-06-02T06:19:08.386Z,26.97
2018-06-02T06:21:38.311Z,23.90
2018-06-02T06:24:07.456Z,26.40
2018-06-02T06:26:36.595Z,25.93
2018-06-02T06:29:06.922Z,21.77
2018-06-02T06:31:36.056Z,24.63
2018-06-02T06:34:05.359Z,25.00
2018-06-02T06:36:34.560Z,21.25
2018-06-02T06:39:03.699Z,21.30
2018-06-02T06:41:32.842Z,21.60
2018-06-02T06:44:02.702Z,23.20
2018-06-02T06:46:31.913Z,23.43
2018-06-02T06:49:01.069Z,24.80
2018-06-02T06:51:30.160Z,21.30
2018-06-02T06:53:59.367Z,22.40
2018-06-02T06:56:28.523Z,22.13
2018-06-02T06:58:58.402Z,21.43
2018-06-02T07:01:27.540Z,22.83
2018-06-02T07:03:58.675Z,22.60
2018-06-02T07:06:27.781Z,22.67
2018-06-02T07:08:56.930Z,21.05
2018-06-02T07:11:26.033Z,22.33
2018-06-02T07:13:55.496Z,21.23
2018-06-02T07:16:25.374Z,25.37
2018-06-02T07:18:54.477Z,24.67
2018-06-02T07:21:24.582Z,26.27
2018-06-02T07:23:53.659Z,21.70
2018-06-02T07:26:22.786Z,24.23
2018-06-02T07:28:51.876Z,30.50
2018-06-02T07:31:20.995Z,24.70
2018-06-02T07:33:50.850Z,23.80
2018-06-02T07:36:19.933Z,22.70
2018-06-02T07:38:49.078Z,30.40
2018-06-02T07:41:18.268Z,26.17
2018-06-02T07:43:48.155Z,26.73
2018-06-02T07:46:17.338Z,25.53
2018-06-02T07:48:46.456Z,30.73
2018-06-02T07:51:15.580Z,31.97
2018-06-02T07:53:45.432Z,32.87
2018-06-02T07:56:14.546Z,31.20
2018-06-02T07:58:43.725Z,30.03
2018-06-02T08:01:12.833Z,33.27
2018-06-02T08:03:42.633Z,28.63
2018-06-02T08:06:11.753Z,29.37
2018-06-02T08:08:40.899Z,34.50
2018-06-02T08:11:09.964Z,32.37
2018-06-02T08:13:39.035Z,28.97
2018-06-02T08:16:08.113Z,26.20
2018-06-02T08:18:37.196Z,28.23
2018-06-02T08:21:06.337Z,27.03
2018-06-02T08:23:35.444Z,31.60
2018-06-02T08:26:04.694Z,30.20
2018-06-02T08:28:33.805Z,34.40
2018-06-02T08:31:02.948Z,26.87
2018-06-02T08:33:32.235Z,27.40
2018-06-02T08:36:02.184Z,26.83
2018-06-02T08:38:32.176Z,24.90
2018-06-02T08:41:01.647Z,26.60
2018-06-02T08:43:31.169Z,24.53
2018-06-02T08:46:00.300Z,26.57
2018-06-02T08:48:29.456Z,26.60
2018-06-02T08:51:00.265Z,29.50
2018-06-02T08:53:29.464Z,28.90
2018-06-02T08:55:58.552Z,27.57
2018-06-02T08:58:28.432Z,29.57
2018-06-02T09:00:57.582Z,30.70
2018-06-02T09:03:27.437Z,31.97
2018-06-02T09:05:56.594Z,29.13
2018-06-02T09:08:25.685Z,29.13
2018-06-02T09:10:54.787Z,35.13
2018-06-02T09:13:23.925Z,32.13
2018-06-02T09:15:53.045Z,28.90
2018-06-02T09:18:22.190Z,30.80
2018-06-02T09:20:51.281Z,27.80
2018-06-02T09:23:21.129Z,28.27
2018-06-02T09:25:51.001Z,27.03
2018-06-02T09:28:20.084Z,30.17
2018-06-02T09:30:49.264Z,25.17
2018-06-02T09:33:20.446Z,29.47
2018-06-02T09:35:49.569Z,22.77
2018-06-02T09:38:18.690Z,23.90
2018-06-02T09:40:47.809Z,24.50
2018-06-02T09:43:16.994Z,22.87
2018-06-02T09:45:46.088Z,27.00
2018-06-02T09:48:15.959Z,24.10
2018-06-02T09:50:45.064Z,21.33
2018-06-02T09:53:14.781Z,24.50
2018-06-02T09:55:43.868Z,20.67
2018-06-02T09:58:13.708Z,22.03
2018-06-02T10:00:42.927Z,20.97
2018-06-02T10:03:12.587Z,17.33
2018-06-02T10:05:41.697Z,21.60
2018-06-02T10:08:11.496Z,22.57
2018-06-02T10:10:40.689Z,20.70
2018-06-02T10:13:09.867Z,19.53
2018-06-02T10:15:38.990Z,16.67
2018-06-02T10:18:08.862Z,21.93
2018-06-02T10:20:38.017Z,28.37
2018-06-02T10:23:07.117Z,26.93
2018-06-02T10:28:34.607Z,24.17
2018-06-02T10:31:03.710Z,24.27
2018-06-02T10:33:32.812Z,23.03
2018-06-02T10:36:01.931Z,23.77
2018-06-02T10:38:31.012Z,29.73
2018-06-02T10:41:00.165Z,31.27
2018-06-02T10:43:29.290Z,25.10
2018-06-02T10:45:58.473Z,36.13
2018-06-02T10:48:27.584Z,33.07
2018-06-02T10:50:56.697Z,29.87
2018-06-02T10:53:25.845Z,33.37
2018-06-02T10:55:54.956Z,34.63
2018-06-02T10:58:24.125Z,32.13
2018-06-02T11:00:54.033Z,39.00
2018-06-02T11:03:23.182Z,30.43
2018-06-02T11:05:52.264Z,34.13
2018-06-02T11:08:21.371Z,33.40
2018-06-02T11:10:50.504Z,35.17
2018-06-02T11:13:19.742Z,34.77
2018-06-02T11:15:48.883Z,38.40
2018-06-02T11:18:18.733Z,36.70
2018-06-02T11:20:47.817Z,34.80
2018-06-02T11:23:17.224Z,37.50
2018-06-02T11:25:46.386Z,35.80
2018-06-02T11:28:15.533Z,29.43
2018-06-02T11:30:44.647Z,36.40
2018-06-02T11:33:14.437Z,32.57
2018-06-02T11:35:43.618Z,30.13
2018-06-02T11:38:13.478Z,32.90
2018-06-02T11:40:42.654Z,26.47
2018-06-02T11:43:12.583Z,29.20
2018-06-02T11:45:42.519Z,27.23
2018-06-02T11:48:11.616Z,23.43
2018-06-02T11:50:41.472Z,27.87
2018-06-02T11:53:10.641Z,25.10
2018-06-02T11:55:39.737Z,25.53
2018-06-02T11:58:08.936Z,28.20
2018-06-02T12:00:38.030Z,27.40
2018-06-02T12:03:07.937Z,23.50
2018-06-02T12:05:37.025Z,24.37
2018-06-02T12:08:06.103Z,24.27
2018-06-02T12:10:35.186Z,24.20
2018-06-02T12:13:05.079Z,24.00
2018-06-02T12:15:34.222Z,23.77
2018-06-02T12:18:03.395Z,23.63
2018-06-02T12:20:32.502Z,25.40
2018-06-02T12:23:02.530Z,27.30
2018-06-02T12:25:31.654Z,26.87
2018-06-02T12:28:01.552Z,26.50
2018-06-02T12:30:31.475Z,28.90
2018-06-02T12:33:00.552Z,24.60
2018-06-02T12:35:29.655Z,24.57
2018-06-02T12:37:58.743Z,24.27
2018-06-02T12:40:27.894Z,22.10
2018-06-02T12:42:57.007Z,22.27
2018-06-02T12:45:26.131Z,18.90
2018-06-02T12:47:55.288Z,25.10
2018-06-02T12:50:24.413Z,19.50
2018-06-02T12:52:54.288Z,22.60
2018-06-02T12:55:23.395Z,16.83
2018-06-02T12:57:52.475Z,16.07
2018-06-02T13:00:21.653Z,17.87
2018-06-02T13:02:50.763Z,18.40
2018-06-02T13:05:19.959Z,17.70
2018-06-02T13:07:49.072Z,18.87
2018-06-02T13:10:18.214Z,22.73
2018-06-02T13:12:48.137Z,20.33
2018-06-02T13:15:18.124Z,23.80
2018-06-02T13:17:47.312Z,19.57
2018-06-02T13:20:16.407Z,18.23
2018-06-02T13:22:46.258Z,18.93
2018-06-02T13:25:15.416Z,24.00
2018-06-02T13:27:44.573Z,23.40
2018-06-02T13:30:13.689Z,22.47
2018-06-02T13:32:42.810Z,20.10
2018-06-02T13:35:11.962Z,16.37
2018-06-02T13:37:41.080Z,19.57
2018-06-02T13:40:10.261Z,16.10
2018-06-02T13:42:39.371Z,24.90
2018-06-02T13:45:08.515Z,22.03
2018-06-02T13:47:37.658Z,20.07
2018-06-02T13:50:06.824Z,24.57
2018-06-02T13:52:35.936Z,20.27
2018-06-02T13:55:05.021Z,19.27
2018-06-02T13:57:34.148Z,19.70
2018-06-02T14:00:03.266Z,19.87
2018-06-02T14:02:33.213Z,19.40
2018-06-02T14:05:03.062Z,20.13
2018-06-02T14:07:32.907Z,21.37
2018-06-02T14:10:02.012Z,18.20
2018-06-02T14:12:31.246Z,18.57
2018-06-02T14:15:00.322Z,16.70
2018-06-02T14:17:29.500Z,22.13
2018-06-02T14:19:58.617Z,19.27
2018-06-02T14:22:27.777Z,23.47
2018-06-02T14:24:56.900Z,21.60
2018-06-02T14:27:26.007Z,17.33
2018-06-02T14:29:55.120Z,28.07
2018-06-02T14:32:24.276Z,18.87
2018-06-02T14:34:53.421Z,20.57
2018-06-02T14:37:22.588Z,18.17
2018-06-02T14:39:51.665Z,17.90
2018-06-02T14:42:20.773Z,20.03
2018-06-02T14:44:49.886Z,21.03
2018-06-02T14:47:19.157Z,21.43
2018-06-02T14:49:49.042Z,16.07
2018-06-02T14:52:18.232Z,17.30
2018-06-02T14:54:47.353Z,15.33
2018-06-02T14:57:16.471Z,16.03
2018-06-02T14:59:45.561Z,16.90
2018-06-02T15:02:14.668Z,16.30
2018-06-02T15:04:43.777Z,18.10
2018-06-02T15:07:12.981Z,15.97
2018-06-02T15:09:42.063Z,21.00
2018-06-02T15:12:11.195Z,19.33
2018-06-02T15:14:41.058Z,17.63
2018-06-02T15:17:10.149Z,21.73
2018-06-02T15:19:39.256Z,15.80
2018-06-02T15:22:08.381Z,16.40
2018-06-02T15:24:37.493Z,16.10
2018-06-02T15:27:06.704Z,19.30
2018-06-02T15:29:35.778Z,14.50
2018-06-02T15:32:04.883Z,18.10
2018-06-02T15:34:34.031Z,18.60
2018-06-02T15:37:03.141Z,17.33
2018-06-02T15:39:33.041Z,21.60
2018-06-02T15:42:02.942Z,14.37
2018-06-02T15:44:32.039Z,14.53
2018-06-02T15:47:01.217Z,17.80
2018-06-02T15:49:30.339Z,19.00
2018-06-02T15:51:59.461Z,20.60
2018-06-02T15:54:28.549Z,20.10
2018-06-02T15:56:57.683Z,18.93
2018-06-02T15:59:26.757Z,18.70
2018-06-02T16:01:55.916Z,18.93
2018-06-02T16:04:25.089Z,17.20
2018-06-02T16:06:54.187Z,20.40
2018-06-02T16:09:24.100Z,23.93
2018-06-02T16:11:53.259Z,20.67
2018-06-02T16:14:22.392Z,19.70
2018-06-02T16:16:52.302Z,21.63
2018-06-02T16:19:21.416Z,20.13
2018-06-02T16:21:50.591Z,17.33
2018-06-02T16:24:20.435Z,18.50
2018-06-02T16:26:49.553Z,17.47
2018-06-02T16:29:18.710Z,17.00
2018-06-02T16:31:47.841Z,14.10
2018-06-02T16:34:16.986Z,16.03
2018-06-02T16:36:46.073Z,16.20
2018-06-02T16:39:15.976Z,15.63
2018-06-02T16:41:45.055Z,15.10
2018-06-02T16:44:14.199Z,18.27
2018-06-02T16:46:43.288Z,17.37
2018-06-02T16:49:12.368Z,17.73
2018-06-02T16:51:41.468Z,16.00
2018-06-02T16:54:10.596Z,17.87
2018-06-02T16:56:39.718Z,17.23
2018-06-02T16:59:08.846Z,25.03
2018-06-02T17:01:37.974Z,22.47
2018-06-02T17:04:07.060Z,16.73
2018-06-02T17:06:37.122Z,17.80
2018-06-02T17:09:06.217Z,24.93
2018-06-02T17:11:35.348Z,21.17
2018-06-02T17:14:04.438Z,20.90
2018-06-02T17:16:33.595Z,23.23
2018-06-02T17:19:02.717Z,20.40
2018-06-02T17:21:32.778Z,18.93
2018-06-02T17:24:01.935Z,24.30
2018-06-02T17:26:31.817Z,22.67
2018-06-02T17:29:00.997Z,25.03
2018-06-02T17:31:30.125Z,21.53
2018-06-02T17:33:59.267Z,29.50
2018-06-02T17:36:28.384Z,23.13
2018-06-02T17:38:57.531Z,22.60
2018-06-02T17:41:27.462Z,22.50
2018-06-02T17:43:57.336Z,19.83
2018-06-02T17:46:26.471Z,27.17
2018-06-02T17:48:55.584Z,25.50
2018-06-02T17:51:24.733Z,27.43
2018-06-02T17:53:53.930Z,33.90
2018-06-02T17:56:23.827Z,28.77
2018-06-02T17:58:52.910Z,25.30
2018-06-02T18:01:22.017Z,21.80
2018-06-02T18:03:51.155Z,25.17
2018-06-02T18:06:20.264Z,31.60
2018-06-02T18:08:49.374Z,19.43
2018-06-02T18:11:18.488Z,27.97
2018-06-02T18:13:47.572Z,25.03
2018-06-02T18:16:16.833Z,21.53
2018-06-02T18:18:46.730Z,23.53
2018-06-02T18:21:15.891Z,26.43
2018-06-02T18:23:45.735Z,27.77
2018-06-02T18:26:14.868Z,31.10
2018-06-02T18:28:43.977Z,26.17
2018-06-02T18:31:13.129Z,27.20
2018-06-02T18:33:42.215Z,32.80
2018-06-02T18:36:11.320Z,26.67
2018-06-02T18:38:40.486Z,29.77
2018-06-02T18:41:09.632Z,31.93
2018-06-02T18:43:38.733Z,29.50
2018-06-02T18:46:07.880Z,32.23
2018-06-02T18:48:37.046Z,30.43
2018-06-02T18:51:06.176Z,28.50
2018-06-02T18:53:35.365Z,30.07
2018-06-02T18:56:04.526Z,30.13
2018-06-02T18:58:33.688Z,31.70
2018-06-02T19:01:02.883Z,28.10
2018-06-02T19:03:32.740Z,26.50
2018-06-02T19:06:01.909Z,31.83
2018-06-02T19:08:30.987Z,32.67
2018-06-02T19:11:00.096Z,29.00
2018-06-02T19:13:29.256Z,33.40
2018-06-02T19:15:58.348Z,43.30
2018-06-02T19:18:27.456Z,29.13
2018-06-02T19:20:56.565Z,27.70
2018-06-02T19:23:25.680Z,26.90
2018-06-02T19:25:54.822Z,29.87
2018-06-02T19:28:23.973Z,26.20
2018-06-02T19:30:53.862Z,28.47
2018-06-02T19:33:22.942Z,26.27
2018-06-02T19:35:52.183Z,27.93
2018-06-02T19:38:22.059Z,29.20
2018-06-02T19:40:51.210Z,29.20
2018-06-02T19:43:21.147Z,25.33
2018-06-02T19:45:50.987Z,31.13
2018-06-02T19:48:20.127Z,27.20
2018-06-02T19:50:49.295Z,25.57
2018-06-02T19:53:19.161Z,23.83
2018-06-02T19:55:48.272Z,25.57
2018-06-02T19:58:17.393Z,30.50
2018-06-02T20:00:46.496Z,31.03
2018-06-02T20:03:15.605Z,24.60
2018-06-02T20:05:44.732Z,27.03
2018-06-02T20:08:13.816Z,29.07
2018-06-02T20:10:42.946Z,33.97
2018-06-02T20:13:12.073Z,25.13
2018-06-02T20:15:41.868Z,26.97
2018-06-02T20:18:10.951Z,24.87
2018-06-02T20:20:40.815Z,24.67
2018-06-02T20:23:09.934Z,22.67
2018-06-02T20:25:39.171Z,20.67
2018-06-02T20:28:08.284Z,21.67
2018-06-02T20:30:37.419Z,24.37
2018-06-02T20:33:07.321Z,26.43
2018-06-02T20:35:37.424Z,23.27
2018-06-02T20:38:06.566Z,22.00
2018-06-02T20:40:35.667Z,25.43
2018-06-02T20:43:04.792Z,24.50
2018-06-02T20:45:33.935Z,29.73
2018-06-02T20:48:03.780Z,24.60
2018-06-02T20:50:32.942Z,23.10
2018-06-02T20:53:02.033Z,25.80
2018-06-02T20:55:31.237Z,22.70
2018-06-02T20:58:00.511Z,23.40
2018-06-02T21:00:30.439Z,28.53
2018-06-02T21:03:00.317Z,26.20
2018-06-02T21:05:29.481Z,27.47
2018-06-02T21:07:58.566Z,24.37
2018-06-02T21:10:27.677Z,23.67
2018-06-02T21:12:56.799Z,22.93
2018-06-02T21:15:26.870Z,25.47
2018-06-02T21:17:55.961Z,22.17
2018-06-02T21:20:25.804Z,23.80
2018-06-02T21:22:54.956Z,25.33
2018-06-02T21:25:24.065Z,21.70
2018-06-02T21:27:53.186Z,22.13
2018-06-02T21:30:22.352Z,20.77
2018-06-02T21:32:51.547Z,25.70
2018-06-02T21:35:20.709Z,25.30
2018-06-02T21:37:49.822Z,22.50
2018-06-02T21:40:18.962Z,24.50
2018-06-02T21:42:48.067Z,25.97
2018-06-02T21:48:17.426Z,25.13
2018-06-02T21:50:46.515Z,25.33
2018-06-02T21:53:16.419Z,22.93
2018-06-02T21:55:45.528Z,26.67
2018-06-02T21:58:14.638Z,24.77
2018-06-02T22:00:43.777Z,25.60
2018-06-02T22:03:13.117Z,28.27
2018-06-02T22:05:43.050Z,29.50
2018-06-02T22:08:12.970Z,34.33
2018-06-02T22:10:42.844Z,32.93
2018-06-02T22:13:11.974Z,25.60
2018-06-02T22:15:41.158Z,26.73
2018-06-02T22:18:10.240Z,34.23
2018-06-02T22:20:40.089Z,27.30
2018-06-02T22:23:09.164Z,32.70
2018-06-02T22:25:38.267Z,31.03
2018-06-02T22:28:07.372Z,33.90
2018-06-02T22:30:36.483Z,37.30
2018-06-02T22:33:05.680Z,33.60
2018-06-02T22:35:35.591Z,44.07
2018-06-02T22:38:04.662Z,39.07
2018-06-02T22:40:34.579Z,46.33
2018-06-02T22:43:03.696Z,38.20
2018-06-02T22:45:33.542Z,37.00
2018-06-02T22:48:03.408Z,37.40
2018-06-02T22:50:32.553Z,38.97
2018-06-02T22:53:01.692Z,44.97
2018-06-02T22:55:31.591Z,40.10
2018-06-02T22:58:00.752Z,42.33
2018-06-02T23:00:29.876Z,37.43
2018-06-02T23:02:58.971Z,40.93
2018-06-02T23:05:28.076Z,43.30
2018-06-02T23:07:57.269Z,43.00
2018-06-02T23:10:27.150Z,40.47
2018-06-02T23:12:56.333Z,45.27
2018-06-02T23:15:25.447Z,48.90
2018-06-02T23:17:54.646Z,44.83
2018-06-02T23:20:23.918Z,41.67
2018-06-02T23:22:53.050Z,42.40
2018-06-02T23:25:22.928Z,39.50
2018-06-02T23:27:52.100Z,47.50
2018-06-02T23:30:21.977Z,42.13
2018-06-02T23:32:51.144Z,47.70
2018-06-02T23:35:21.018Z,39.47
2018-06-02T23:37:50.138Z,42.27
2018-06-02T23:40:19.300Z,47.00
2018-06-02T23:42:48.442Z,47.40
2018-06-02T23:45:17.532Z,44.30
2018-06-02T23:47:46.611Z,47.37
2018-06-02T23:50:16.468Z,47.10
2018-06-02T23:52:45.595Z,40.50
2018-06-02T23:55:14.699Z,48.03
2018-06-02T23:57:43.784Z,47.00
